sensor_id;sensor_type;location;lat;lon;timestamp;temperature;humidity
8858;DHT22;4465;50.904;4.696;2023-07-13T00:00:09;17.00;98.70
8858;DHT22;4465;50.904;4.696;2023-07-13T00:02:35;17.00;98.70
8858;DHT22;4465;50.904;4.696;2023-07-13T00:05:02;17.00;99.00
8858;DHT22;4465;50.904;4.696;2023-07-13T00:07:28;16.90;99.10
8858;DHT22;4465;50.904;4.696;2023-07-13T00:09:53;16.90;99.00
8858;DHT22;4465;50.904;4.696;2023-07-13T00:12:29;16.90;99.00
8858;DHT22;4465;50.904;4.696;2023-07-13T00:15:00;16.90;99.20
8858;DHT22;4465;50.904;4.696;2023-07-13T00:17:27;16.80;99.30
8858;DHT22;4465;50.904;4.696;2023-07-13T00:19:54;16.80;99.20
8858;DHT22;4465;50.904;4.696;2023-07-13T00:22:24;16.80;99.20
8858;DHT22;4465;50.904;4.696;2023-07-13T00:24:54;16.80;99.40
8858;DHT22;4465;50.904;4.696;2023-07-13T00:27:22;16.80;99.40
8858;DHT22;4465;50.904;4.696;2023-07-13T00:29:48;16.70;99.40
8858;DHT22;4465;50.904;4.696;2023-07-13T00:32:14;16.70;99.50
8858;DHT22;4465;50.904;4.696;2023-07-13T00:34:40;16.70;99.30
8858;DHT22;4465;50.904;4.696;2023-07-13T00:37:06;16.70;99.40
8858;DHT22;4465;50.904;4.696;2023-07-13T00:39:34;16.70;99.60
8858;DHT22;4465;50.904;4.696;2023-07-13T00:42:00;16.60;99.60
8858;DHT22;4465;50.904;4.696;2023-07-13T00:44:29;16.60;99.70
8858;DHT22;4465;50.904;4.696;2023-07-13T00:46:55;16.60;99.70
8858;DHT22;4465;50.904;4.696;2023-07-13T00:49:25;16.50;99.90
8858;DHT22;4465;50.904;4.696;2023-07-13T00:51:58;16.50;99.80
8858;DHT22;4465;50.904;4.696;2023-07-13T00:54:29;16.50;99.80
8858;DHT22;4465;50.904;4.696;2023-07-13T00:56:59;16.40;99.80
8858;DHT22;4465;50.904;4.696;2023-07-13T00:59:31;16.40;99.90
8858;DHT22;4465;50.904;4.696;2023-07-13T01:02:00;16.40;99.90
8858;DHT22;4465;50.904;4.696;2023-07-13T01:04:26;16.30;99.90
8858;DHT22;4465;50.904;4.696;2023-07-13T01:06:57;16.30;99.90
8858;DHT22;4465;50.904;4.696;2023-07-13T01:09:25;16.20;99.90
8858;DHT22;4465;50.904;4.696;2023-07-13T01:11:53;16.20;99.90
8858;DHT22;4465;50.904;4.696;2023-07-13T01:14:19;16.20;99.90
8858;DHT22;4465;50.904;4.696;2023-07-13T01:16:47;16.20;99.90
8858;DHT22;4465;50.904;4.696;2023-07-13T01:19:21;16.20;99.90
8858;DHT22;4465;50.904;4.696;2023-07-13T01:21:52;16.10;99.90
8858;DHT22;4465;50.904;4.696;2023-07-13T01:24:18;16.10;99.90
8858;DHT22;4465;50.904;4.696;2023-07-13T01:26:44;16.10;99.90
8858;DHT22;4465;50.904;4.696;2023-07-13T01:29:10;16.00;99.90
8858;DHT22;4465;50.904;4.696;2023-07-13T01:31:36;16.00;99.90
8858;DHT22;4465;50.904;4.696;2023-07-13T01:34:02;16.00;99.90
8858;DHT22;4465;50.904;4.696;2023-07-13T01:36:27;16.00;99.90
8858;DHT22;4465;50.904;4.696;2023-07-13T01:38:53;16.00;99.90
8858;DHT22;4465;50.904;4.696;2023-07-13T01:41:19;16.00;99.90
8858;DHT22;4465;50.904;4.696;2023-07-13T01:43:47;16.00;99.90
8858;DHT22;4465;50.904;4.696;2023-07-13T01:46:13;16.00;99.90
8858;DHT22;4465;50.904;4.696;2023-07-13T01:48:41;16.00;99.90
8858;DHT22;4465;50.904;4.696;2023-07-13T01:51:07;15.90;99.90
8858;DHT22;4465;50.904;4.696;2023-07-13T01:53:33;15.90;99.90
8858;DHT22;4465;50.904;4.696;2023-07-13T01:56:01;15.90;99.90
8858;DHT22;4465;50.904;4.696;2023-07-13T01:58:27;15.90;99.90
8858;DHT22;4465;50.904;4.696;2023-07-13T02:00:53;15.90;99.90
8858;DHT22;4465;50.904;4.696;2023-07-13T02:03:19;15.90;99.90
8858;DHT22;4465;50.904;4.696;2023-07-13T02:05:45;15.90;99.90
8858;DHT22;4465;50.904;4.696;2023-07-13T02:08:11;15.80;99.90
8858;DHT22;4465;50.904;4.696;2023-07-13T02:10:37;15.80;99.90
8858;DHT22;4465;50.904;4.696;2023-07-13T02:13:06;15.80;99.90
8858;DHT22;4465;50.904;4.696;2023-07-13T02:15:32;15.80;99.90
8858;DHT22;4465;50.904;4.696;2023-07-13T02:17:58;15.80;99.90
8858;DHT22;4465;50.904;4.696;2023-07-13T02:20:25;15.80;99.90
8858;DHT22;4465;50.904;4.696;2023-07-13T02:22:52;15.80;99.90
8858;DHT22;4465;50.904;4.696;2023-07-13T02:25:18;15.80;99.90
8858;DHT22;4465;50.904;4.696;2023-07-13T02:27:44;15.80;99.90
8858;DHT22;4465;50.904;4.696;2023-07-13T02:30:11;15.70;99.90
8858;DHT22;4465;50.904;4.696;2023-07-13T02:32:37;15.70;99.90
8858;DHT22;4465;50.904;4.696;2023-07-13T02:35:03;15.70;99.90
8858;DHT22;4465;50.904;4.696;2023-07-13T02:37:31;15.70;99.90
8858;DHT22;4465;50.904;4.696;2023-07-13T02:39:57;15.70;99.90
8858;DHT22;4465;50.904;4.696;2023-07-13T02:42:23;15.70;99.90
8858;DHT22;4465;50.904;4.696;2023-07-13T02:44:49;15.70;99.90
8858;DHT22;4465;50.904;4.696;2023-07-13T02:47:16;15.70;99.90
8858;DHT22;4465;50.904;4.696;2023-07-13T02:49:42;15.80;99.90
8858;DHT22;4465;50.904;4.696;2023-07-13T02:52:10;15.80;99.90
8858;DHT22;4465;50.904;4.696;2023-07-13T02:54:36;15.80;99.90
8858;DHT22;4465;50.904;4.696;2023-07-13T02:57:02;15.80;99.90
8858;DHT22;4465;50.904;4.696;2023-07-13T02:59:28;15.80;99.90
8858;DHT22;4465;50.904;4.696;2023-07-13T03:01:54;15.80;99.90
8858;DHT22;4465;50.904;4.696;2023-07-13T03:04:20;15.80;99.90
8858;DHT22;4465;50.904;4.696;2023-07-13T03:06:46;15.80;99.90
8858;DHT22;4465;50.904;4.696;2023-07-13T03:09:12;15.80;99.90
8858;DHT22;4465;50.904;4.696;2023-07-13T03:11:41;15.80;99.90
8858;DHT22;4465;50.904;4.696;2023-07-13T03:14:07;15.80;99.90
8858;DHT22;4465;50.904;4.696;2023-07-13T03:16:34;15.80;99.90
8858;DHT22;4465;50.904;4.696;2023-07-13T03:18:59;15.80;99.90
8858;DHT22;4465;50.904;4.696;2023-07-13T03:21:27;15.80;99.90
8858;DHT22;4465;50.904;4.696;2023-07-13T03:23:56;15.80;99.90
8858;DHT22;4465;50.904;4.696;2023-07-13T03:26:22;15.80;99.90
8858;DHT22;4465;50.904;4.696;2023-07-13T03:28:48;15.80;99.90
8858;DHT22;4465;50.904;4.696;2023-07-13T03:31:17;15.80;99.90
8858;DHT22;4465;50.904;4.696;2023-07-13T03:33:44;15.80;99.90
8858;DHT22;4465;50.904;4.696;2023-07-13T03:36:14;15.80;99.90
8858;DHT22;4465;50.904;4.696;2023-07-13T03:38:41;15.80;99.90
8858;DHT22;4465;50.904;4.696;2023-07-13T03:41:07;15.80;99.90
8858;DHT22;4465;50.904;4.696;2023-07-13T03:43:33;15.70;99.90
8858;DHT22;4465;50.904;4.696;2023-07-13T03:45:59;15.80;99.90
8858;DHT22;4465;50.904;4.696;2023-07-13T03:48:27;15.80;99.90
8858;DHT22;4465;50.904;4.696;2023-07-13T03:50:53;15.80;99.90
8858;DHT22;4465;50.904;4.696;2023-07-13T03:53:19;15.80;99.90
8858;DHT22;4465;50.904;4.696;2023-07-13T03:55:45;15.70;99.90
8858;DHT22;4465;50.904;4.696;2023-07-13T03:58:45;15.70;99.90
8858;DHT22;4465;50.904;4.696;2023-07-13T04:01:12;15.70;99.90
8858;DHT22;4465;50.904;4.696;2023-07-13T04:03:38;15.70;99.90
8858;DHT22;4465;50.904;4.696;2023-07-13T04:06:08;15.70;99.90
8858;DHT22;4465;50.904;4.696;2023-07-13T04:08:41;15.70;99.90
8858;DHT22;4465;50.904;4.696;2023-07-13T04:11:06;15.70;99.90
8858;DHT22;4465;50.904;4.696;2023-07-13T04:13:33;15.70;99.90
8858;DHT22;4465;50.904;4.696;2023-07-13T04:15:59;15.70;99.90
8858;DHT22;4465;50.904;4.696;2023-07-13T04:18:24;15.70;99.90
8858;DHT22;4465;50.904;4.696;2023-07-13T04:20:52;15.70;99.90
8858;DHT22;4465;50.904;4.696;2023-07-13T04:23:18;15.80;99.90
8858;DHT22;4465;50.904;4.696;2023-07-13T04:25:46;15.70;99.90
8858;DHT22;4465;50.904;4.696;2023-07-13T04:28:15;15.70;99.90
8858;DHT22;4465;50.904;4.696;2023-07-13T04:30:40;15.80;99.90
8858;DHT22;4465;50.904;4.696;2023-07-13T04:33:06;15.80;99.90
8858;DHT22;4465;50.904;4.696;2023-07-13T04:35:34;15.80;99.90
8858;DHT22;4465;50.904;4.696;2023-07-13T04:38:00;15.80;99.90
8858;DHT22;4465;50.904;4.696;2023-07-13T04:40:27;15.80;99.90
8858;DHT22;4465;50.904;4.696;2023-07-13T04:42:53;15.80;99.90
8858;DHT22;4465;50.904;4.696;2023-07-13T04:45:24;15.80;99.90
8858;DHT22;4465;50.904;4.696;2023-07-13T04:47:50;15.80;99.90
8858;DHT22;4465;50.904;4.696;2023-07-13T04:50:16;15.90;99.90
8858;DHT22;4465;50.904;4.696;2023-07-13T04:52:51;15.90;99.90
8858;DHT22;4465;50.904;4.696;2023-07-13T04:55:18;15.90;99.90
8858;DHT22;4465;50.904;4.696;2023-07-13T04:57:45;15.90;99.90
8858;DHT22;4465;50.904;4.696;2023-07-13T05:00:12;15.90;99.90
8858;DHT22;4465;50.904;4.696;2023-07-13T05:02:39;15.90;99.90
8858;DHT22;4465;50.904;4.696;2023-07-13T05:05:06;16.00;99.90
8858;DHT22;4465;50.904;4.696;2023-07-13T05:07:34;16.00;99.90
8858;DHT22;4465;50.904;4.696;2023-07-13T05:10:00;16.00;99.90
8858;DHT22;4465;50.904;4.696;2023-07-13T05:12:27;16.00;99.90
8858;DHT22;4465;50.904;4.696;2023-07-13T05:14:53;16.10;99.90
8858;DHT22;4465;50.904;4.696;2023-07-13T05:17:22;16.10;99.90
8858;DHT22;4465;50.904;4.696;2023-07-13T05:19:47;16.10;99.90
8858;DHT22;4465;50.904;4.696;2023-07-13T05:22:15;16.10;99.90
8858;DHT22;4465;50.904;4.696;2023-07-13T05:24:44;16.20;99.90
8858;DHT22;4465;50.904;4.696;2023-07-13T05:27:10;16.20;99.90
8858;DHT22;4465;50.904;4.696;2023-07-13T05:29:36;16.20;99.90
8858;DHT22;4465;50.904;4.696;2023-07-13T05:32:02;16.30;99.90
8858;DHT22;4465;50.904;4.696;2023-07-13T05:34:29;16.30;99.90
8858;DHT22;4465;50.904;4.696;2023-07-13T05:36:57;16.40;99.90
8858;DHT22;4465;50.904;4.696;2023-07-13T05:39:23;16.40;99.90
8858;DHT22;4465;50.904;4.696;2023-07-13T05:41:50;16.40;99.90
8858;DHT22;4465;50.904;4.696;2023-07-13T05:44:16;16.50;99.90
8858;DHT22;4465;50.904;4.696;2023-07-13T05:46:42;16.50;99.90
8858;DHT22;4465;50.904;4.696;2023-07-13T05:49:08;16.60;99.90
8858;DHT22;4465;50.904;4.696;2023-07-13T05:51:34;16.60;99.90
8858;DHT22;4465;50.904;4.696;2023-07-13T05:53:59;16.60;99.90
8858;DHT22;4465;50.904;4.696;2023-07-13T05:56:25;16.70;99.90
8858;DHT22;4465;50.904;4.696;2023-07-13T05:58:52;16.70;99.90
8858;DHT22;4465;50.904;4.696;2023-07-13T06:01:18;16.70;99.90
8858;DHT22;4465;50.904;4.696;2023-07-13T06:03:46;16.80;99.90
8858;DHT22;4465;50.904;4.696;2023-07-13T06:06:13;16.80;99.90
8858;DHT22;4465;50.904;4.696;2023-07-13T06:08:44;16.90;99.90
8858;DHT22;4465;50.904;4.696;2023-07-13T06:11:21;16.90;99.90
8858;DHT22;4465;50.904;4.696;2023-07-13T06:13:48;16.90;99.90
8858;DHT22;4465;50.904;4.696;2023-07-13T06:16:17;16.90;99.90
8858;DHT22;4465;50.904;4.696;2023-07-13T06:18:43;17.00;99.90
8858;DHT22;4465;50.904;4.696;2023-07-13T06:21:17;17.00;99.90
8858;DHT22;4465;50.904;4.696;2023-07-13T06:23:49;17.10;99.90
8858;DHT22;4465;50.904;4.696;2023-07-13T06:26:18;17.10;99.90
8858;DHT22;4465;50.904;4.696;2023-07-13T06:28:48;17.10;99.90
8858;DHT22;4465;50.904;4.696;2023-07-13T06:31:16;17.10;99.90
8858;DHT22;4465;50.904;4.696;2023-07-13T06:33:43;17.20;99.90
8858;DHT22;4465;50.904;4.696;2023-07-13T06:36:09;17.30;99.90
8858;DHT22;4465;50.904;4.696;2023-07-13T06:38:35;17.30;99.90
8858;DHT22;4465;50.904;4.696;2023-07-13T06:41:01;17.30;99.90
8858;DHT22;4465;50.904;4.696;2023-07-13T06:43:27;17.30;99.90
8858;DHT22;4465;50.904;4.696;2023-07-13T06:45:55;17.40;99.90
8858;DHT22;4465;50.904;4.696;2023-07-13T06:48:24;17.40;99.90
8858;DHT22;4465;50.904;4.696;2023-07-13T06:50:52;17.40;99.90
8858;DHT22;4465;50.904;4.696;2023-07-13T06:53:21;17.40;99.90
8858;DHT22;4465;50.904;4.696;2023-07-13T06:55:48;17.50;99.90
8858;DHT22;4465;50.904;4.696;2023-07-13T06:58:18;17.50;99.90
8858;DHT22;4465;50.904;4.696;2023-07-13T07:00:44;17.60;99.90
8858;DHT22;4465;50.904;4.696;2023-07-13T07:03:13;17.60;99.90
8858;DHT22;4465;50.904;4.696;2023-07-13T07:05:40;17.70;99.90
8858;DHT22;4465;50.904;4.696;2023-07-13T07:08:11;17.80;99.90
8858;DHT22;4465;50.904;4.696;2023-07-13T07:10:37;17.80;99.90
8858;DHT22;4465;50.904;4.696;2023-07-13T07:13:03;17.90;99.90
8858;DHT22;4465;50.904;4.696;2023-07-13T07:15:30;18.00;99.90
8858;DHT22;4465;50.904;4.696;2023-07-13T07:17:56;18.00;99.90
8858;DHT22;4465;50.904;4.696;2023-07-13T07:20:21;18.10;99.90
8858;DHT22;4465;50.904;4.696;2023-07-13T07:22:48;18.10;99.90
8858;DHT22;4465;50.904;4.696;2023-07-13T07:25:14;18.20;99.90
8858;DHT22;4465;50.904;4.696;2023-07-13T07:27:42;18.30;99.90
8858;DHT22;4465;50.904;4.696;2023-07-13T07:30:09;18.30;99.90
8858;DHT22;4465;50.904;4.696;2023-07-13T07:32:35;18.40;99.90
8858;DHT22;4465;50.904;4.696;2023-07-13T07:35:00;18.40;99.90
8858;DHT22;4465;50.904;4.696;2023-07-13T07:37:26;18.50;99.90
8858;DHT22;4465;50.904;4.696;2023-07-13T07:39:55;18.50;99.90
8858;DHT22;4465;50.904;4.696;2023-07-13T07:42:23;18.60;99.90
8858;DHT22;4465;50.904;4.696;2023-07-13T07:44:49;18.60;99.90
8858;DHT22;4465;50.904;4.696;2023-07-13T07:47:14;18.70;99.90
8858;DHT22;4465;50.904;4.696;2023-07-13T07:49:43;18.70;99.90
8858;DHT22;4465;50.904;4.696;2023-07-13T07:52:09;18.70;99.90
8858;DHT22;4465;50.904;4.696;2023-07-13T07:54:37;18.80;99.90
8858;DHT22;4465;50.904;4.696;2023-07-13T07:57:03;18.80;99.90
8858;DHT22;4465;50.904;4.696;2023-07-13T07:59:32;18.90;99.90
8858;DHT22;4465;50.904;4.696;2023-07-13T08:01:58;18.90;99.90
8858;DHT22;4465;50.904;4.696;2023-07-13T08:04:23;19.00;99.90
8858;DHT22;4465;50.904;4.696;2023-07-13T08:06:52;19.10;99.90
8858;DHT22;4465;50.904;4.696;2023-07-13T08:09:22;19.10;99.90
8858;DHT22;4465;50.904;4.696;2023-07-13T08:11:48;19.20;99.90
8858;DHT22;4465;50.904;4.696;2023-07-13T08:14:14;19.30;99.90
8858;DHT22;4465;50.904;4.696;2023-07-13T08:16:40;19.40;99.90
8858;DHT22;4465;50.904;4.696;2023-07-13T08:19:05;19.50;99.90
8858;DHT22;4465;50.904;4.696;2023-07-13T08:21:32;19.50;99.90
8858;DHT22;4465;50.904;4.696;2023-07-13T08:23:58;19.60;99.90
8858;DHT22;4465;50.904;4.696;2023-07-13T08:26:23;19.70;99.90
8858;DHT22;4465;50.904;4.696;2023-07-13T08:28:49;19.90;99.90
8858;DHT22;4465;50.904;4.696;2023-07-13T08:31:15;20.10;99.90
8858;DHT22;4465;50.904;4.696;2023-07-13T08:33:41;20.30;99.90
8858;DHT22;4465;50.904;4.696;2023-07-13T08:36:10;20.50;99.90
8858;DHT22;4465;50.904;4.696;2023-07-13T08:38:36;20.70;99.90
8858;DHT22;4465;50.904;4.696;2023-07-13T08:41:12;20.90;99.90
8858;DHT22;4465;50.904;4.696;2023-07-13T08:43:59;21.00;99.90
8858;DHT22;4465;50.904;4.696;2023-07-13T08:46:44;21.10;99.90
8858;DHT22;4465;50.904;4.696;2023-07-13T08:49:12;21.10;99.90
8858;DHT22;4465;50.904;4.696;2023-07-13T08:51:46;21.20;99.90
8858;DHT22;4465;50.904;4.696;2023-07-13T08:56:50;21.20;99.90
8858;DHT22;4465;50.904;4.696;2023-07-13T08:59:21;21.20;99.90
8858;DHT22;4465;50.904;4.696;2023-07-13T09:02:05;21.20;99.90
8858;DHT22;4465;50.904;4.696;2023-07-13T09:04:37;21.20;99.90
8858;DHT22;4465;50.904;4.696;2023-07-13T09:12:50;21.10;99.90
8858;DHT22;4465;50.904;4.696;2023-07-13T09:17:56;21.20;99.90
8858;DHT22;4465;50.904;4.696;2023-07-13T09:20:30;21.20;99.90
8858;DHT22;4465;50.904;4.696;2023-07-13T09:23:01;21.30;99.90
8858;DHT22;4465;50.904;4.696;2023-07-13T09:25:35;21.30;99.90
8858;DHT22;4465;50.904;4.696;2023-07-13T09:28:23;21.40;99.90
8858;DHT22;4465;50.904;4.696;2023-07-13T09:31:06;21.50;99.90
8858;DHT22;4465;50.904;4.696;2023-07-13T09:33:32;21.60;99.90
8858;DHT22;4465;50.904;4.696;2023-07-13T09:35:58;21.70;99.90
8858;DHT22;4465;50.904;4.696;2023-07-13T09:38:27;21.70;99.90
8858;DHT22;4465;50.904;4.696;2023-07-13T09:41:19;21.70;99.90
8858;DHT22;4465;50.904;4.696;2023-07-13T09:46:53;21.70;99.90
8858;DHT22;4465;50.904;4.696;2023-07-13T09:49:27;21.70;99.90
8858;DHT22;4465;50.904;4.696;2023-07-13T09:52:05;21.70;99.90
8858;DHT22;4465;50.904;4.696;2023-07-13T09:54:36;21.70;99.90
8858;DHT22;4465;50.904;4.696;2023-07-13T09:57:13;21.70;99.90
8858;DHT22;4465;50.904;4.696;2023-07-13T09:59:48;21.70;99.90
8858;DHT22;4465;50.904;4.696;2023-07-13T10:05:10;21.80;99.90
8858;DHT22;4465;50.904;4.696;2023-07-13T10:07:43;21.80;99.90
8858;DHT22;4465;50.904;4.696;2023-07-13T10:10:18;21.80;99.90
8858;DHT22;4465;50.904;4.696;2023-07-13T10:12:48;21.70;99.90
8858;DHT22;4465;50.904;4.696;2023-07-13T10:15:18;21.80;99.90
8858;DHT22;4465;50.904;4.696;2023-07-13T10:17:45;21.70;99.90
8858;DHT22;4465;50.904;4.696;2023-07-13T10:20:11;21.70;99.90
8858;DHT22;4465;50.904;4.696;2023-07-13T10:22:54;21.60;99.90
8858;DHT22;4465;50.904;4.696;2023-07-13T10:25:28;21.60;99.90
8858;DHT22;4465;50.904;4.696;2023-07-13T10:30:40;21.60;99.90
8858;DHT22;4465;50.904;4.696;2023-07-13T10:33:13;21.60;99.90
8858;DHT22;4465;50.904;4.696;2023-07-13T10:35:42;21.60;99.90
8858;DHT22;4465;50.904;4.696;2023-07-13T10:38:19;21.60;99.90
8858;DHT22;4465;50.904;4.696;2023-07-13T10:41:07;21.60;99.90
8858;DHT22;4465;50.904;4.696;2023-07-13T10:43:51;21.60;99.90
8858;DHT22;4465;50.904;4.696;2023-07-13T10:46:23;21.70;99.90
8858;DHT22;4465;50.904;4.696;2023-07-13T10:48:57;21.90;99.90
8858;DHT22;4465;50.904;4.696;2023-07-13T10:51:25;22.00;99.90
8858;DHT22;4465;50.904;4.696;2023-07-13T10:56:39;22.20;99.90
8858;DHT22;4465;50.904;4.696;2023-07-13T10:59:34;22.30;99.90
8858;DHT22;4465;50.904;4.696;2023-07-13T11:04:47;22.30;99.90
8858;DHT22;4465;50.904;4.696;2023-07-13T11:07:26;22.20;99.90
8858;DHT22;4465;50.904;4.696;2023-07-13T11:09:58;22.30;99.90
8858;DHT22;4465;50.904;4.696;2023-07-13T11:19:51;22.50;99.90
8858;DHT22;4465;50.904;4.696;2023-07-13T11:22:25;22.60;99.90
8858;DHT22;4465;50.904;4.696;2023-07-13T11:25:06;22.60;99.90
8858;DHT22;4465;50.904;4.696;2023-07-13T11:27:51;22.50;99.90
8858;DHT22;4465;50.904;4.696;2023-07-13T11:33:22;22.30;99.90
8858;DHT22;4465;50.904;4.696;2023-07-13T11:36:12;22.20;99.90
8858;DHT22;4465;50.904;4.696;2023-07-13T11:38:41;22.00;99.90
8858;DHT22;4465;50.904;4.696;2023-07-13T11:41:30;21.90;99.90
8858;DHT22;4465;50.904;4.696;2023-07-13T11:44:27;21.90;99.90
8858;DHT22;4465;50.904;4.696;2023-07-13T11:46:56;22.00;99.90
8858;DHT22;4465;50.904;4.696;2023-07-13T11:49:25;22.30;99.90
8858;DHT22;4465;50.904;4.696;2023-07-13T11:51:55;22.70;99.90
8858;DHT22;4465;50.904;4.696;2023-07-13T11:54:28;23.00;99.90
8858;DHT22;4465;50.904;4.696;2023-07-13T11:57:21;23.20;99.90
8858;DHT22;4465;50.904;4.696;2023-07-13T11:59:50;23.40;99.90
8858;DHT22;4465;50.904;4.696;2023-07-13T12:02:29;24.00;99.90
8858;DHT22;4465;50.904;4.696;2023-07-13T12:04:57;24.30;98.20
8858;DHT22;4465;50.904;4.696;2023-07-13T12:07:23;24.30;99.50
8858;DHT22;4465;50.904;4.696;2023-07-13T12:09:52;24.50;99.20
8858;DHT22;4465;50.904;4.696;2023-07-13T12:12:21;24.40;98.80
8858;DHT22;4465;50.904;4.696;2023-07-13T12:14:53;24.20;98.50
8858;DHT22;4465;50.904;4.696;2023-07-13T12:17:26;23.90;98.10
8858;DHT22;4465;50.904;4.696;2023-07-13T12:19:53;23.70;98.30
8858;DHT22;4465;50.904;4.696;2023-07-13T12:22:20;23.40;97.80
8858;DHT22;4465;50.904;4.696;2023-07-13T12:24:49;23.20;98.60
8858;DHT22;4465;50.904;4.696;2023-07-13T12:27:25;23.00;98.50
8858;DHT22;4465;50.904;4.696;2023-07-13T12:30:03;22.90;98.90
8858;DHT22;4465;50.904;4.696;2023-07-13T12:32:35;22.80;99.10
8858;DHT22;4465;50.904;4.696;2023-07-13T12:35:15;22.70;99.30
8858;DHT22;4465;50.904;4.696;2023-07-13T12:37:43;22.60;99.10
8858;DHT22;4465;50.904;4.696;2023-07-13T12:40:32;22.30;99.50
8858;DHT22;4465;50.904;4.696;2023-07-13T12:42:59;22.20;99.30
8858;DHT22;4465;50.904;4.696;2023-07-13T12:45:28;22.10;99.50
8858;DHT22;4465;50.904;4.696;2023-07-13T12:47:59;22.00;99.90
8858;DHT22;4465;50.904;4.696;2023-07-13T12:50:33;22.00;99.90
8858;DHT22;4465;50.904;4.696;2023-07-13T12:53:06;21.90;99.90
8858;DHT22;4465;50.904;4.696;2023-07-13T12:55:59;21.80;99.90
8858;DHT22;4465;50.904;4.696;2023-07-13T12:58:36;21.60;99.90
8858;DHT22;4465;50.904;4.696;2023-07-13T13:01:04;21.40;99.90
8858;DHT22;4465;50.904;4.696;2023-07-13T13:03:37;21.30;99.90
8858;DHT22;4465;50.904;4.696;2023-07-13T13:08:50;21.00;99.90
8858;DHT22;4465;50.904;4.696;2023-07-13T13:11:20;20.90;99.90
8858;DHT22;4465;50.904;4.696;2023-07-13T13:13:46;20.70;99.90
8858;DHT22;4465;50.904;4.696;2023-07-13T13:16:37;20.60;99.90
8858;DHT22;4465;50.904;4.696;2023-07-13T13:19:14;20.40;99.90
8858;DHT22;4465;50.904;4.696;2023-07-13T13:21:42;20.30;99.90
8858;DHT22;4465;50.904;4.696;2023-07-13T13:24:17;20.20;99.90
8858;DHT22;4465;50.904;4.696;2023-07-13T13:26:44;20.00;99.90
8858;DHT22;4465;50.904;4.696;2023-07-13T13:29:15;20.00;99.90
8858;DHT22;4465;50.904;4.696;2023-07-13T13:31:42;19.90;99.90
8858;DHT22;4465;50.904;4.696;2023-07-13T13:34:10;19.90;99.90
8858;DHT22;4465;50.904;4.696;2023-07-13T13:36:36;19.80;99.90
8858;DHT22;4465;50.904;4.696;2023-07-13T13:39:02;19.70;99.90
8858;DHT22;4465;50.904;4.696;2023-07-13T13:41:32;19.70;99.90
8858;DHT22;4465;50.904;4.696;2023-07-13T13:43:58;19.60;99.90
8858;DHT22;4465;50.904;4.696;2023-07-13T13:46:26;19.60;99.90
8858;DHT22;4465;50.904;4.696;2023-07-13T13:48:56;19.60;99.90
8858;DHT22;4465;50.904;4.696;2023-07-13T13:51:23;19.60;99.90
8858;DHT22;4465;50.904;4.696;2023-07-13T13:53:50;19.70;99.90
8858;DHT22;4465;50.904;4.696;2023-07-13T13:56:20;19.80;99.90
8858;DHT22;4465;50.904;4.696;2023-07-13T13:58:47;19.90;99.90
8858;DHT22;4465;50.904;4.696;2023-07-13T14:01:18;20.00;99.90
8858;DHT22;4465;50.904;4.696;2023-07-13T14:03:45;20.00;99.90
8858;DHT22;4465;50.904;4.696;2023-07-13T14:06:15;20.00;99.90
8858;DHT22;4465;50.904;4.696;2023-07-13T14:08:42;20.10;99.90
8858;DHT22;4465;50.904;4.696;2023-07-13T14:11:15;20.10;99.90
8858;DHT22;4465;50.904;4.696;2023-07-13T14:13:53;20.10;99.90
8858;DHT22;4465;50.904;4.696;2023-07-13T14:16:21;20.10;99.90
8858;DHT22;4465;50.904;4.696;2023-07-13T14:18:48;20.20;99.90
8858;DHT22;4465;50.904;4.696;2023-07-13T14:21:16;20.30;99.90
8858;DHT22;4465;50.904;4.696;2023-07-13T14:23:44;20.40;99.90
8858;DHT22;4465;50.904;4.696;2023-07-13T14:26:12;20.50;99.90
8858;DHT22;4465;50.904;4.696;2023-07-13T14:28:41;20.60;99.90
8858;DHT22;4465;50.904;4.696;2023-07-13T14:31:11;20.70;99.90
8858;DHT22;4465;50.904;4.696;2023-07-13T14:33:37;20.90;99.90
8858;DHT22;4465;50.904;4.696;2023-07-13T14:36:28;21.00;99.90
8858;DHT22;4465;50.904;4.696;2023-07-13T14:38:52;21.10;99.90
8858;DHT22;4465;50.904;4.696;2023-07-13T14:41:19;21.30;99.90
8858;DHT22;4465;50.904;4.696;2023-07-13T14:43:46;21.40;99.90
8858;DHT22;4465;50.904;4.696;2023-07-13T14:46:31;21.50;99.90
8858;DHT22;4465;50.904;4.696;2023-07-13T14:49:11;21.70;99.90
8858;DHT22;4465;50.904;4.696;2023-07-13T14:51:38;21.70;99.90
8858;DHT22;4465;50.904;4.696;2023-07-13T14:54:05;21.80;99.90
8858;DHT22;4465;50.904;4.696;2023-07-13T14:56:36;21.90;99.90
8858;DHT22;4465;50.904;4.696;2023-07-13T14:59:02;21.90;99.90
8858;DHT22;4465;50.904;4.696;2023-07-13T15:01:31;22.00;99.90
8858;DHT22;4465;50.904;4.696;2023-07-13T15:03:58;22.10;99.90
8858;DHT22;4465;50.904;4.696;2023-07-13T15:06:26;22.10;99.90
8858;DHT22;4465;50.904;4.696;2023-07-13T15:08:52;22.10;99.90
8858;DHT22;4465;50.904;4.696;2023-07-13T15:11:18;22.10;99.90
8858;DHT22;4465;50.904;4.696;2023-07-13T15:13:44;22.00;99.90
8858;DHT22;4465;50.904;4.696;2023-07-13T15:16:24;22.00;99.90
8858;DHT22;4465;50.904;4.696;2023-07-13T15:18:51;22.00;99.90
8858;DHT22;4465;50.904;4.696;2023-07-13T15:21:23;21.90;99.90
8858;DHT22;4465;50.904;4.696;2023-07-13T15:23:49;21.90;99.90
8858;DHT22;4465;50.904;4.696;2023-07-13T15:26:18;21.90;99.90
8858;DHT22;4465;50.904;4.696;2023-07-13T15:28:45;21.90;99.90
8858;DHT22;4465;50.904;4.696;2023-07-13T15:31:23;21.90;99.90
8858;DHT22;4465;50.904;4.696;2023-07-13T15:33:55;22.00;99.90
8858;DHT22;4465;50.904;4.696;2023-07-13T15:36:25;22.00;99.90
8858;DHT22;4465;50.904;4.696;2023-07-13T15:38:56;22.10;99.90
8858;DHT22;4465;50.904;4.696;2023-07-13T15:41:25;22.10;99.90
8858;DHT22;4465;50.904;4.696;2023-07-13T15:43:54;22.10;99.90
8858;DHT22;4465;50.904;4.696;2023-07-13T15:46:22;22.30;99.90
8858;DHT22;4465;50.904;4.696;2023-07-13T15:48:51;22.30;99.90
8858;DHT22;4465;50.904;4.696;2023-07-13T15:51:25;22.30;99.90
8858;DHT22;4465;50.904;4.696;2023-07-13T15:53:59;22.40;99.90
8858;DHT22;4465;50.904;4.696;2023-07-13T15:56:29;22.40;99.90
8858;DHT22;4465;50.904;4.696;2023-07-13T15:58:57;22.40;99.90
8858;DHT22;4465;50.904;4.696;2023-07-13T16:01:24;22.50;99.90
8858;DHT22;4465;50.904;4.696;2023-07-13T16:03:50;22.50;99.90
8858;DHT22;4465;50.904;4.696;2023-07-13T16:06:27;22.50;99.90
8858;DHT22;4465;50.904;4.696;2023-07-13T16:08:54;22.50;99.90
8858;DHT22;4465;50.904;4.696;2023-07-13T16:11:24;22.50;99.90
8858;DHT22;4465;50.904;4.696;2023-07-13T16:13:54;22.50;99.90
8858;DHT22;4465;50.904;4.696;2023-07-13T16:16:27;22.50;99.90
8858;DHT22;4465;50.904;4.696;2023-07-13T16:18:59;22.60;99.90
8858;DHT22;4465;50.904;4.696;2023-07-13T16:21:27;22.60;99.90
8858;DHT22;4465;50.904;4.696;2023-07-13T16:23:54;22.60;99.90
8858;DHT22;4465;50.904;4.696;2023-07-13T16:26:36;22.60;99.90
8858;DHT22;4465;50.904;4.696;2023-07-13T16:29:22;22.60;99.90
8858;DHT22;4465;50.904;4.696;2023-07-13T16:32:06;22.60;99.90
8858;DHT22;4465;50.904;4.696;2023-07-13T16:34:36;22.50;99.90
8858;DHT22;4465;50.904;4.696;2023-07-13T16:39:37;22.50;99.90
8858;DHT22;4465;50.904;4.696;2023-07-13T16:42:04;22.50;99.90
8858;DHT22;4465;50.904;4.696;2023-07-13T16:44:31;22.50;99.90
8858;DHT22;4465;50.904;4.696;2023-07-13T16:46:58;22.40;99.90
8858;DHT22;4465;50.904;4.696;2023-07-13T16:51:57;22.40;99.90
8858;DHT22;4465;50.904;4.696;2023-07-13T16:54:28;22.40;99.90
8858;DHT22;4465;50.904;4.696;2023-07-13T16:56:58;22.50;99.90
8858;DHT22;4465;50.904;4.696;2023-07-13T16:59:30;22.50;99.90